Time;durP1;ratioP1;P1;durP2;ratioP2;P2;SDS_P1;SDS_P2;PMS_P1;PMS_P2;Temp;Humidity;BMP_temperature;BMP_pressure;BME280_temperature;BME280_humidity;BME280_pressure;Samples;Min_cycle;Max_cycle;Signal;HPM_P1;HPM_P2
2022/05/08 00:02:24;;;;;;;4.25;3.08;;;;;;;12.29;100.00;102478.97;1955941;73;21085;-71
2022/05/08 00:04:53;;;;;;;8.33;3.70;;;;;;;12.24;100.00;102487.02;1956078;73;21066;-71
2022/05/08 00:07:21;;;;;;;4.25;2.80;;;;;;;12.15;100.00;102489.34;1955762;72;21049;-71
2022/05/08 00:09:49;;;;;;;4.67;2.90;;;;;;;12.30;100.00;102487.59;1955785;72;21116;-71
2022/05/08 00:12:17;;;;;;;7.08;3.30;;;;;;;12.15;100.00;102489.34;1974136;72;21113;-71
2022/05/08 00:14:46;;;;;;;4.37;2.50;;;;;;;12.20;100.00;102485.20;1922250;73;21065;-71
2022/05/08 00:17:13;;;;;;;6.75;2.67;;;;;;;12.29;100.00;102486.70;1963041;73;21083;-71
2022/05/08 00:19:43;;;;;;;4.80;2.50;;;;;;;12.48;100.00;102483.30;1962608;72;21143;-71
2022/05/08 00:22:11;;;;;;;4.40;2.95;;;;;;;12.59;100.00;102469.36;1922304;73;21033;-71
2022/05/08 00:24:39;;;;;;;5.60;2.87;;;;;;;12.66;100.00;102459.65;1920366;72;21064;-71
2022/05/08 00:27:07;;;;;;;4.87;3.08;;;;;;;12.58;100.00;102441.41;1958345;72;21070;-71
2022/05/08 00:29:34;;;;;;;5.37;2.60;;;;;;;12.55;100.00;102428.44;1958105;72;21152;-71
2022/05/08 00:32:02;;;;;;;4.50;3.00;;;;;;;12.40;100.00;102417.80;1957855;72;21053;-71
2022/05/08 00:34:29;;;;;;;5.17;3.05;;;;;;;12.47;100.00;102408.06;1958314;72;21180;-71
2022/05/08 00:36:57;;;;;;;5.92;2.85;;;;;;;12.51;100.00;102409.87;1958269;72;21046;-71
2022/05/08 00:39:24;;;;;;;3.98;2.47;;;;;;;12.50;100.00;102405.16;1958409;72;21139;-71
2022/05/08 00:41:52;;;;;;;6.25;3.17;;;;;;;12.48;100.00;102396.94;1959674;72;21014;-71
2022/05/08 00:44:19;;;;;;;9.83;2.90;;;;;;;12.36;100.00;102391.06;1962681;72;21072;-71
2022/05/08 00:46:48;;;;;;;7.37;3.15;;;;;;;12.29;100.00;102384.91;1957986;73;21163;-71
2022/05/08 00:49:16;;;;;;;5.35;3.33;;;;;;;12.13;100.00;102374.23;1958617;72;21492;-71
2022/05/08 00:51:47;;;;;;;5.45;3.12;;;;;;;12.31;100.00;102376.77;1963018;73;21033;-71
2022/05/08 00:54:13;;;;;;;5.35;2.90;;;;;;;12.22;100.00;102372.70;1959007;72;21097;-71
2022/05/08 00:56:41;;;;;;;4.87;3.15;;;;;;;12.40;100.00;102368.39;1960231;72;21021;-71
2022/05/08 00:59:09;;;;;;;4.62;3.10;;;;;;;12.18;100.00;102361.47;1961748;72;21034;-71
2022/05/08 01:01:37;;;;;;;10.60;4.62;;;;;;;12.20;100.00;102357.64;1962818;71;21065;-71
2022/05/08 01:04:05;;;;;;;5.97;3.50;;;;;;;12.18;100.00;102352.45;1954790;72;21042;-71
2022/05/08 01:06:33;;;;;;;6.70;3.40;;;;;;;12.13;100.00;102349.77;1962878;73;20994;-71
2022/05/08 01:09:00;;;;;;;4.83;3.20;;;;;;;12.15;100.00;102356.23;1922053;73;21136;-71
2022/05/08 01:11:27;;;;;;;4.83;2.92;;;;;;;12.20;100.00;102355.92;1966835;72;21535;-71
2022/05/08 01:13:55;;;;;;;5.17;3.10;;;;;;;12.13;100.00;102349.77;1945899;72;21067;-71
2022/05/08 01:16:23;;;;;;;5.70;3.30;;;;;;;12.13;100.00;102354.03;1942514;73;21059;-71
2022/05/08 01:18:51;;;;;;;5.55;3.05;;;;;;;12.00;100.00;102351.13;1942641;72;21045;-71
2022/05/08 01:21:21;;;;;;;6.03;3.90;;;;;;;12.10;100.00;102353.55;1942178;73;21553;-71
2022/05/08 01:23:49;;;;;;;5.30;3.22;;;;;;;12.20;100.00;102358.94;1942486;74;21042;-71
2022/05/08 01:26:22;;;;;;;7.00;3.67;;;;;;;12.29;100.00;102351.81;1942064;73;22215;-71
2022/05/08 01:28:50;;;;;;;7.95;3.62;;;;;;;12.11;100.00;102346.70;1942342;74;21748;-71
2022/05/08 01:31:17;;;;;;;6.05;3.80;;;;;;;12.03;100.00;102343.89;1942489;72;21388;-71
2022/05/08 01:33:45;;;;;;;5.87;3.37;;;;;;;12.00;100.00;102347.71;1942490;74;21059;-71
2022/05/08 01:36:12;;;;;;;6.20;3.92;;;;;;;12.19;100.00;102355.87;1936940;72;21030;-71
2022/05/08 01:38:40;;;;;;;6.62;3.60;;;;;;;11.93;100.00;102356.12;1934489;72;21540;-71
2022/05/08 01:41:08;;;;;;;5.10;3.30;;;;;;;11.86;100.00;102364.12;1940443;72;21019;-71
2022/05/08 01:43:36;;;;;;;6.03;3.95;;;;;;;11.74;100.00;102366.84;1913114;74;21069;-71
2022/05/08 01:46:06;;;;;;;6.33;3.47;;;;;;;11.77;100.00;102380.61;1942390;72;21110;-71
2022/05/08 01:48:34;;;;;;;12.58;5.47;;;;;;;11.95;100.00;102383.66;1918494;74;21031;-71
2022/05/08 01:51:03;;;;;;;6.37;3.80;;;;;;;11.75;100.00;102383.14;1947658;72;21046;-71
2022/05/08 01:53:33;;;;;;;7.20;3.60;;;;;;;11.61;100.00;102392.68;1938486;72;21103;-71
2022/05/08 01:56:05;;;;;;;6.87;4.17;;;;;;;11.65;100.00;102402.63;1934443;72;21070;-71
2022/05/08 01:58:32;;;;;;;6.45;3.27;;;;;;;11.65;100.00;102418.52;1938670;72;21421;-70
2022/05/08 02:01:01;;;;;;;9.80;3.40;;;;;;;11.87;100.00;102426.37;1942155;74;21051;-71
2022/05/08 02:03:29;;;;;;;5.60;3.42;;;;;;;11.69;100.00;102419.05;1942540;74;21126;-71
2022/05/08 02:05:57;;;;;;;5.97;3.45;;;;;;;11.76;100.00;102421.36;1939927;72;21547;-71
2022/05/08 02:08:24;;;;;;;9.40;3.95;;;;;;;11.58;100.00;102426.06;1934728;74;21069;-71
2022/05/08 02:10:52;;;;;;;6.53;4.05;;;;;;;11.56;100.00;102442.30;1918496;73;21080;-71
2022/05/08 02:13:19;;;;;;;7.30;3.65;;;;;;;11.21;100.00;102441.78;1965433;72;21077;-70
2022/05/08 02:15:47;;;;;;;8.95;4.35;;;;;;;11.56;100.00;102466.75;1957660;72;21164;-71
2022/05/08 02:18:14;;;;;;;8.88;4.95;;;;;;;11.58;100.00;102471.55;1959511;72;21021;-71
2022/05/08 02:20:41;;;;;;;5.62;3.35;;;;;;;11.50;100.00;102459.73;1958170;72;21125;-70
2022/05/08 02:23:10;;;;;;;8.25;4.40;;;;;;;11.48;100.00;102466.56;1957802;72;21115;-71
2022/05/08 02:25:38;;;;;;;7.15;4.00;;;;;;;11.53;100.00;102469.23;1958235;72;21064;-71
2022/05/08 02:28:06;;;;;;;7.70;4.25;;;;;;;11.44;100.00;102459.58;1961139;72;21034;-71
2022/05/08 02:30:34;;;;;;;8.05;4.20;;;;;;;11.37;100.00;102466.23;1962806;73;21151;-71
2022/05/08 02:33:02;;;;;;;7.00;4.30;;;;;;;11.44;100.00;102468.59;1962509;72;21126;-71
2022/05/08 02:35:30;;;;;;;8.43;3.92;;;;;;;11.38;100.00;102464.55;1962610;73;21158;-71
2022/05/08 02:37:57;;;;;;;7.35;4.08;;;;;;;11.50;100.00;102471.75;1951722;73;21072;-71
2022/05/08 02:40:25;;;;;;;8.13;4.12;;;;;;;11.38;100.00;102477.01;1962797;72;21051;-71
2022/05/08 02:42:53;;;;;;;7.58;4.58;;;;;;;11.31;100.00;102478.94;1962908;71;21041;-71
2022/05/08 02:45:22;;;;;;;9.43;5.40;;;;;;;11.43;100.00;102483.55;1923540;73;21056;-71
2022/05/08 02:47:49;;;;;;;10.43;4.97;;;;;;;11.49;100.00;102476.02;1962103;72;21065;-71
2022/05/08 02:50:18;;;;;;;8.13;4.25;;;;;;;11.48;100.00;102471.27;1963004;71;21087;-71
2022/05/08 02:52:46;;;;;;;7.20;4.20;;;;;;;11.37;100.00;102465.38;1922605;72;21013;-71
2022/05/08 03:00:28;;;;;;;7.62;4.10;;;;;;;11.30;100.00;102487.50;1928585;72;21490;-71
2022/05/08 03:02:55;;;;;;;6.78;3.98;;;;;;;11.51;100.00;102493.65;1962716;72;21022;-71
2022/05/08 03:05:23;;;;;;;7.35;4.47;;;;;;;11.35;100.00;102486.80;1962925;71;21057;-71
2022/05/08 03:07:50;;;;;;;8.93;3.72;;;;;;;11.45;100.00;102484.48;1924034;72;21017;-71
2022/05/08 03:10:18;;;;;;;9.33;4.92;;;;;;;11.40;100.00;102488.64;1958590;72;21021;-71
2022/05/08 03:12:45;;;;;;;9.03;4.37;;;;;;;11.40;100.00;102477.91;1974503;72;21230;-71
2022/05/08 03:15:12;;;;;;;7.62;3.98;;;;;;;11.47;100.00;102482.41;1925563;73;21073;-71
2022/05/08 03:17:40;;;;;;;7.05;4.03;;;;;;;11.41;100.00;102483.94;1961090;72;21696;-71
2022/05/08 03:20:09;;;;;;;6.80;4.33;;;;;;;11.57;100.00;102479.67;1961231;72;21025;-71
2022/05/08 03:22:36;;;;;;;8.93;5.08;;;;;;;11.51;100.00;102474.34;1963000;73;21710;-71
2022/05/08 03:25:04;;;;;;;7.03;4.40;;;;;;;11.53;100.00;102462.40;1962872;73;21112;-71
2022/05/08 03:27:31;;;;;;;8.80;4.35;;;;;;;11.61;100.00;102467.34;1963070;71;21069;-71
2022/05/08 03:29:59;;;;;;;7.03;3.90;;;;;;;11.62;100.00;102446.34;1962118;73;21045;-71
2022/05/08 03:32:26;;;;;;;6.78;4.12;;;;;;;11.64;100.00;102445.95;1960959;72;21034;-71
2022/05/08 03:34:53;;;;;;;9.30;4.95;;;;;;;11.70;100.00;102443.55;1922048;72;21257;-71
2022/05/08 03:37:21;;;;;;;8.23;4.62;;;;;;;11.76;100.00;102429.97;1962836;73;21095;-71
2022/05/08 03:39:48;;;;;;;10.40;4.85;;;;;;;11.75;100.00;102420.48;1962925;73;21147;-71
2022/05/08 03:42:16;;;;;;;7.45;4.25;;;;;;;11.71;100.00;102413.10;1962406;73;21092;-71
2022/05/08 03:44:43;;;;;;;9.75;4.50;;;;;;;11.63;100.00;102408.58;1961926;72;21068;-71
2022/05/08 03:47:10;;;;;;;8.58;5.00;;;;;;;11.70;100.00;102410.48;1921749;73;21019;-71
2022/05/08 03:49:38;;;;;;;6.08;3.70;;;;;;;11.65;100.00;102404.36;1921510;72;21107;-71
2022/05/08 03:52:06;;;;;;;7.85;5.05;;;;;;;11.66;100.00;102409.55;1958414;72;21025;-71
2022/05/08 03:54:34;;;;;;;8.53;4.28;;;;;;;11.63;100.00;102405.59;1958222;72;21554;-71
2022/05/08 03:57:01;;;;;;;11.75;4.50;;;;;;;11.71;100.00;102404.09;1958086;72;21111;-71
2022/05/08 03:59:28;;;;;;;9.33;5.10;;;;;;;11.82;100.00;102408.22;1958029;72;21021;-71
2022/05/08 04:01:56;;;;;;;8.03;4.75;;;;;;;11.94;100.00;102405.50;1921576;73;20998;-71
2022/05/08 04:04:24;;;;;;;8.65;4.75;;;;;;;11.86;100.00;102402.75;1962423;72;21054;-71
2022/05/08 04:06:51;;;;;;;10.58;4.87;;;;;;;11.90;100.00;102398.53;1962956;73;21039;-71
2022/05/08 04:09:18;;;;;;;9.73;5.08;;;;;;;11.78;100.00;102394.81;1962437;72;21150;-71
2022/05/08 04:11:46;;;;;;;9.20;4.37;;;;;;;11.76;100.00;102402.93;1963061;73;21053;-71
2022/05/08 04:14:13;;;;;;;9.53;5.75;;;;;;;11.91;100.00;102406.70;1943474;72;21140;-71
2022/05/08 04:16:41;;;;;;;8.90;5.17;;;;;;;11.84;100.00;102407.86;1939273;72;21463;-71
2022/05/08 04:19:08;;;;;;;9.08;5.15;;;;;;;11.86;100.00;102404.89;1936352;72;21026;-71
2022/05/08 04:21:35;;;;;;;9.65;4.85;;;;;;;11.96;100.00;102402.56;1936063;72;21525;-71
2022/05/08 04:24:18;;;;;;;10.53;5.37;;;;;;;11.86;100.00;102405.33;1936546;72;21677;-71
2022/05/08 04:26:47;;;;;;;10.32;5.10;;;;;;;11.64;100.00;102413.77;1936397;72;21062;-70
2022/05/08 04:29:15;;;;;;;8.45;4.78;;;;;;;11.96;100.00;102425.75;1936667;72;21108;-71
2022/05/08 04:31:42;;;;;;;10.58;5.12;;;;;;;11.92;100.00;102423.93;1935922;72;21228;-71
2022/05/08 04:34:09;;;;;;;10.30;5.70;;;;;;;12.10;100.00;102426.98;1936627;72;21161;-71
2022/05/08 04:36:37;;;;;;;9.45;5.42;;;;;;;11.89;100.00;102423.84;1936454;72;21640;-71
2022/05/08 04:39:05;;;;;;;9.95;5.75;;;;;;;11.83;100.00;102433.14;1913391;74;21519;-71
2022/05/08 04:41:32;;;;;;;8.95;5.37;;;;;;;11.89;100.00;102435.00;1936259;72;21007;-71
2022/05/08 04:44:00;;;;;;;9.50;5.37;;;;;;;11.74;100.00;102428.64;1935986;72;21051;-71
2022/05/08 04:46:28;;;;;;;8.55;5.83;;;;;;;11.85;100.00;102439.61;1936548;72;21197;-71
2022/05/08 04:48:56;;;;;;;9.48;5.15;;;;;;;11.53;100.00;102424.19;1936446;72;21054;-71
2022/05/08 04:51:23;;;;;;;7.28;4.75;;;;;;;11.63;100.00;102436.89;1936448;72;21053;-71
2022/05/08 04:53:50;;;;;;;8.00;5.40;;;;;;;11.76;100.00;102439.39;1936380;72;21628;-71
2022/05/08 04:56:18;;;;;;;9.95;4.95;;;;;;;11.58;100.00;102437.64;1936554;72;21214;-71
2022/05/08 04:58:45;;;;;;;10.43;5.97;;;;;;;11.56;100.00;102442.30;1936538;72;21056;-71
2022/05/08 05:01:13;;;;;;;10.48;5.45;;;;;;;11.76;100.00;102446.70;1936640;72;21120;-71
2022/05/08 05:03:41;;;;;;;10.28;5.85;;;;;;;12.00;100.00;102453.33;1936606;72;21047;-71
2022/05/08 05:06:09;;;;;;;11.22;6.17;;;;;;;11.83;100.00;102440.01;1936334;72;21088;-71
2022/05/08 05:08:37;;;;;;;11.93;6.28;;;;;;;11.85;100.00;102453.37;1936680;72;21137;-71
2022/05/08 05:11:09;;;;;;;9.43;5.75;;;;;;;11.82;100.00;102462.30;1937070;72;21090;-71
2022/05/08 05:13:37;;;;;;;13.80;5.62;;;;;;;11.89;100.00;102471.49;1955161;72;21103;-73
2022/05/08 05:16:05;;;;;;;11.63;6.85;;;;;;;11.96;100.00;102474.25;1941105;72;21110;-71
2022/05/08 05:18:33;;;;;;;11.95;6.17;;;;;;;11.99;100.00;102479.49;1936440;72;21098;-70
2022/05/08 05:21:00;;;;;;;9.28;5.37;;;;;;;11.97;100.00;102486.30;1936362;72;21138;-71
2022/05/08 05:23:28;;;;;;;10.18;5.55;;;;;;;12.14;100.00;102492.36;1936159;72;21153;-71
2022/05/08 05:25:56;;;;;;;8.88;5.22;;;;;;;12.17;100.00;102499.29;1936551;72;21066;-71
2022/05/08 05:28:23;;;;;;;11.10;5.78;;;;;;;12.30;100.00;102494.89;1912763;72;21035;-71
2022/05/08 05:30:51;;;;;;;12.23;6.22;;;;;;;12.22;100.00;102489.55;1936729;72;21102;-71
2022/05/08 05:33:19;;;;;;;10.90;6.00;;;;;;;12.35;100.00;102486.84;1936473;72;21235;-71
2022/05/08 05:35:46;;;;;;;10.95;6.28;;;;;;;12.31;100.00;102473.42;1936517;72;21131;-71
2022/05/08 05:38:14;;;;;;;11.48;6.42;;;;;;;12.22;100.00;102472.80;1936105;72;21134;-71
2022/05/08 05:40:41;;;;;;;14.35;7.22;;;;;;;12.18;100.00;102474.84;1936276;72;21571;-71
2022/05/08 05:43:09;;;;;;;12.15;6.08;;;;;;;12.08;100.00;102480.59;1936435;72;21161;-71
2022/05/08 05:45:36;;;;;;;12.18;6.33;;;;;;;12.26;100.00;102485.34;1936586;72;21136;-71
2022/05/08 05:48:04;;;;;;;12.18;5.95;;;;;;;12.40;100.00;102486.96;1936531;72;21122;-71
2022/05/08 05:50:31;;;;;;;11.97;6.42;;;;;;;12.47;100.00;102480.24;1936043;72;21515;-71
2022/05/08 05:52:58;;;;;;;11.88;6.12;;;;;;;12.38;100.00;102475.76;1936632;72;21048;-71
2022/05/08 05:55:26;;;;;;;10.70;6.10;;;;;;;12.59;100.00;102477.09;1936385;72;21039;-71
2022/05/08 05:57:53;;;;;;;9.23;6.05;;;;;;;12.46;100.00;102469.08;1913303;74;21027;-71
2022/05/08 06:00:24;;;;;;;12.63;6.25;;;;;;;12.60;100.00;102468.11;1936457;72;20995;-71
2022/05/08 06:02:51;;;;;;;12.45;7.08;;;;;;;12.48;100.00;102457.08;1936474;72;21099;-71
2022/05/08 06:05:19;;;;;;;12.90;6.22;;;;;;;12.75;100.00;102461.54;1936550;72;21231;-71
2022/05/08 06:07:47;;;;;;;9.68;6.45;;;;;;;12.68;100.00;102454.53;1936011;72;21051;-71
2022/05/08 06:10:15;;;;;;;12.90;6.20;;;;;;;12.72;100.00;102461.50;1936646;72;21050;-71
2022/05/08 06:12:42;;;;;;;11.40;6.05;;;;;;;12.90;100.00;102450.27;1957926;72;21140;-71
2022/05/08 06:15:10;;;;;;;10.80;6.03;;;;;;;12.87;100.00;102440.32;1931369;72;21174;-71
2022/05/08 06:17:39;;;;;;;11.90;6.00;;;;;;;12.96;100.00;102439.66;1941897;72;21051;-71
2022/05/08 06:20:07;;;;;;;11.60;6.08;;;;;;;13.00;100.00;102431.98;1936731;72;21428;-71
2022/05/08 06:22:35;;;;;;;13.25;6.70;;;;;;;13.05;100.00;102432.09;1934453;74;20999;-71
2022/05/08 06:25:03;;;;;;;11.00;6.00;;;;;;;13.32;100.00;102425.75;1940010;72;21074;-71
2022/05/08 06:27:31;;;;;;;11.20;6.20;;;;;;;13.29;100.00;102415.36;1942465;74;21068;-71
2022/05/08 06:29:59;;;;;;;10.50;6.70;;;;;;;13.25;100.00;102408.41;1942101;74;21071;-71
2022/05/08 06:32:27;;;;;;;9.05;5.55;;;;;;;13.42;100.00;102404.41;1942692;73;21042;-71
2022/05/08 06:34:54;;;;;;;7.40;5.08;;;;;;;13.45;100.00;102400.16;1941887;72;21141;-71
2022/05/08 06:37:21;;;;;;;11.08;5.28;;;;;;;13.78;100.00;102393.88;1916086;74;21654;-71
2022/05/08 06:39:49;;;;;;;8.63;5.62;;;;;;;13.95;100.00;102376.48;1934426;72;21073;-71
2022/05/08 06:42:16;;;;;;;12.90;5.87;;;;;;;14.14;100.00;102359.13;1938370;72;20999;-71
2022/05/08 06:44:44;;;;;;;10.65;5.75;;;;;;;14.32;100.00;102335.70;1912670;73;21058;-71
2022/05/08 06:47:11;;;;;;;11.95;5.35;;;;;;;14.37;100.00;102303.42;1911436;74;21014;-71
2022/05/08 06:49:38;;;;;;;8.85;5.03;;;;;;;14.88;100.00;102287.67;1941299;72;21100;-71
2022/05/08 06:52:06;;;;;;;10.63;4.92;;;;;;;15.19;100.00;102263.39;1941884;74;21161;-71
2022/05/08 06:54:33;;;;;;;10.72;6.00;;;;;;;15.32;100.00;102232.85;1942509;73;21743;-71
2022/05/08 06:57:01;;;;;;;8.25;4.72;;;;;;;15.59;100.00;102216.20;1914470;73;21099;-71
2022/05/08 07:02:15;;;;;;;8.38;4.67;;;;;;;16.03;100.00;102155.55;1935156;72;21054;-71
2022/05/08 07:04:42;;;;;;;7.50;4.50;;;;;;;16.12;100.00;102136.16;1942550;74;21175;-71
2022/05/08 07:07:10;;;;;;;10.00;4.97;;;;;;;16.36;100.00;102125.37;1913592;74;21972;-71
2022/05/08 07:09:37;;;;;;;10.13;5.20;;;;;;;16.61;100.00;102113.30;1934860;73;21030;-72
2022/05/08 07:12:05;;;;;;;6.53;4.42;;;;;;;16.49;100.00;102097.31;1937250;72;21080;-71
2022/05/08 07:14:32;;;;;;;5.67;3.77;;;;;;;16.80;100.00;102097.73;1915813;74;21058;-71
2022/05/08 07:17:00;;;;;;;5.30;3.95;;;;;;;16.50;100.00;102083.89;1960878;71;21128;-71
2022/05/08 07:19:27;;;;;;;6.15;3.90;;;;;;;16.62;100.00;102087.81;1962889;73;21178;-72
2022/05/08 07:21:55;;;;;;;5.42;3.85;;;;;;;17.08;100.00;102074.80;1962983;73;21018;-72
2022/05/08 07:24:22;;;;;;;6.50;3.80;;;;;;;17.15;100.00;102072.20;1923743;72;21018;-72
2022/05/08 07:26:50;;;;;;;6.55;3.83;;;;;;;17.09;100.00;102065.70;1961920;72;21125;-71
2022/05/08 07:29:17;;;;;;;7.17;3.72;;;;;;;17.30;100.00;102064.36;1962742;73;21022;-72
2022/05/08 07:31:45;;;;;;;6.17;3.17;;;;;;;16.97;100.00;102048.41;1954836;73;21025;-72
2022/05/08 07:36:58;;;;;;;4.70;2.40;;;;;;;16.73;100.00;102046.28;1957624;72;21503;-72
2022/05/08 07:39:25;;;;;;;7.83;2.90;;;;;;;17.11;100.00;102054.89;1958454;72;21050;-72
2022/05/08 07:41:52;;;;;;;4.97;3.15;;;;;;;17.53;100.00;102049.55;1958099;72;21037;-73
2022/05/08 07:44:20;;;;;;;3.90;2.25;;;;;;;17.28;100.00;102047.48;1961381;72;21230;-72
2022/05/08 07:46:47;;;;;;;3.52;2.45;;;;;;;17.70;100.00;102046.42;1962927;72;21010;-72
2022/05/08 07:49:15;;;;;;;2.85;1.98;;;;;;;17.79;100.00;102052.89;1962862;73;21007;-72
2022/05/08 07:51:42;;;;;;;2.80;2.40;;;;;;;18.35;100.00;102052.98;1961189;72;21104;-72
2022/05/08 07:54:09;;;;;;;3.98;1.80;;;;;;;18.82;100.00;102025.66;1920581;73;21070;-72
2022/05/08 07:56:37;;;;;;;2.30;1.80;;;;;;;18.82;100.00;102025.66;1963009;72;21482;-72
2022/05/08 07:59:04;;;;;;;4.08;2.00;;;;;;;17.90;100.00;102031.60;1922361;73;21450;-72
2022/05/08 08:01:32;;;;;;;2.75;1.92;;;;;;;18.35;100.00;102030.87;1921939;72;20992;-72
2022/05/08 08:03:59;;;;;;;2.10;1.45;;;;;;;18.79;100.00;102030.05;1958034;72;21132;-72
2022/05/08 08:06:26;;;;;;;2.62;1.95;;;;;;;19.71;100.00;102012.02;1960238;72;21563;-72
2022/05/08 08:08:54;;;;;;;2.62;1.70;;;;;;;19.71;100.00;102012.02;1962921;73;21022;-72
2022/05/08 08:11:22;;;;;;;3.30;1.57;;;;;;;19.95;100.00;102019.92;1968142;72;21029;-72
2022/05/08 08:13:49;;;;;;;1.98;1.30;;;;;;;20.28;100.00;102018.11;1970060;72;21029;-72
2022/05/08 08:16:17;;;;;;;4.12;1.40;;;;;;;20.81;100.00;102010.67;1960474;72;21069;-72
2022/05/08 08:18:45;;;;;;;2.40;1.67;;;;;;;20.49;100.00;102012.97;1955903;72;21037;-73
2022/05/08 08:21:14;;;;;;;4.65;2.05;;;;;;;21.04;100.00;102005.45;1955657;72;21565;-72
2022/05/08 08:23:43;;;;;;;4.45;1.87;;;;;;;21.12;100.00;102002.70;1956026;72;21025;-73
2022/05/08 08:26:12;;;;;;;1.60;1.17;;;;;;;21.04;100.00;101996.30;1955361;72;21626;-73
2022/05/08 08:28:40;;;;;;;2.10;1.50;;;;;;;21.32;100.00;101994.88;1955601;73;21099;-72
2022/05/08 08:31:08;;;;;;;1.65;1.30;;;;;;;21.42;100.00;101996.84;1955994;72;21142;-73
2022/05/08 08:33:40;;;;;;;1.98;1.20;;;;;;;21.61;100.00;102000.77;1952617;72;21490;-72
2022/05/08 08:36:08;;;;;;;2.50;1.45;;;;;;;21.74;100.00;101999.21;1956064;73;21061;-73
2022/05/08 08:38:37;;;;;;;1.75;1.20;;;;;;;22.03;100.00;102006.80;1955904;72;21571;-73
2022/05/08 08:41:05;;;;;;;1.07;0.98;;;;;;;22.31;100.00;102002.17;1955916;73;21213;-73
2022/05/08 08:49:23;;;;;;;1.85;1.10;;;;;;;22.02;100.00;102009.02;1955423;73;21155;-73
2022/05/08 08:51:51;;;;;;;2.10;1.20;;;;;;;22.01;100.00;102005.52;1956114;72;21034;-73
2022/05/08 08:54:22;;;;;;;2.30;1.27;;;;;;;22.40;100.00;101998.00;1955811;72;21128;-73
2022/05/08 08:56:50;;;;;;;1.45;1.05;;;;;;;22.79;100.00;102004.88;1956052;73;21038;-73
2022/05/08 08:59:18;;;;;;;1.45;1.00;;;;;;;22.63;100.00;102003.11;1957467;72;21024;-73
2022/05/08 09:01:46;;;;;;;3.47;1.17;;;;;;;22.66;100.00;102006.97;1953589;72;21069;-73
2022/05/08 09:04:15;;;;;;;3.15;1.32;;;;;;;23.13;100.00;101997.81;1951470;73;21529;-73
2022/05/08 09:06:44;;;;;;;1.65;0.98;;;;;;;23.26;100.00;102002.69;1955940;73;21514;-73
2022/05/08 09:09:34;;;;;;;4.22;1.22;;;;;;;22.81;100.00;102004.37;1955862;72;21037;-73
2022/05/08 09:12:02;;;;;;;1.90;1.30;;;;;;;22.79;100.00;102002.70;1955146;72;21646;-73
2022/05/08 09:14:32;;;;;;;3.50;2.02;;;;;;;23.07;100.00;101991.42;1956070;73;21073;-73
2022/05/08 09:17:01;;;;;;;1.60;1.10;;;;;;;23.10;100.00;101993.96;1957739;72;21139;-73
2022/05/08 09:19:39;;;;;;;2.27;1.25;;;;;;;22.98;100.00;101993.02;1962825;71;21116;-74
2022/05/08 09:22:09;;;;;;;1.92;1.40;;;;;;;23.16;100.00;101997.70;1962906;72;21006;-73
2022/05/08 09:24:37;;;;;;;5.80;1.52;;;;;;;23.50;100.00;102000.25;1963061;72;21079;-74
2022/05/08 09:27:16;;;;;;;3.85;1.77;;;;;;;23.63;100.00;101998.95;1963008;72;21144;-74
2022/05/08 09:29:44;;;;;;;2.37;1.10;;;;;;;23.77;100.00;102001.13;1962934;73;21173;-74
2022/05/08 09:32:30;;;;;;;2.45;1.37;;;;;;;23.84;100.00;101992.16;1962907;73;21022;-74
2022/05/08 09:34:58;;;;;;;2.92;1.90;;;;;;;23.66;100.00;102000.17;1962603;72;21067;-74
2022/05/08 09:37:27;;;;;;;2.27;1.30;;;;;;;23.79;100.00;101987.97;1962851;72;21103;-74
2022/05/08 09:40:16;;;;;;;6.65;1.60;;;;;;;24.37;100.00;101992.66;1954903;73;21017;-74
2022/05/08 09:42:43;;;;;;;2.05;1.50;;;;;;;24.28;100.00;101990.75;1957829;72;21137;-74
2022/05/08 09:45:11;;;;;;;1.50;1.40;;;;;;;24.33;100.00;101986.63;1931353;73;21069;-74
2022/05/08 09:47:44;;;;;;;1.92;1.37;;;;;;;24.25;100.00;101982.98;1962621;72;21022;-74
2022/05/08 09:50:13;;;;;;;3.65;1.47;;;;;;;24.17;100.00;101987.19;1960980;72;21041;-74
2022/05/08 09:52:42;;;;;;;1.75;1.30;;;;;;;24.25;100.00;101988.22;1957989;72;21076;-74
2022/05/08 09:55:16;;;;;;;3.33;1.47;;;;;;;24.46;100.00;101984.00;1920651;72;22438;-74
2022/05/08 09:57:44;;;;;;;2.10;1.70;;;;;;;24.17;100.00;101983.25;1958043;72;21169;-74
2022/05/08 10:00:13;;;;;;;3.12;1.60;;;;;;;24.19;100.00;101979.23;1958272;72;21575;-74
2022/05/08 10:02:43;;;;;;;3.92;1.98;;;;;;;24.65;100.00;101973.28;1959131;72;21061;-74
2022/05/08 10:05:11;;;;;;;4.20;1.27;;;;;;;24.81;100.00;101966.98;1963144;72;21097;-74
2022/05/08 10:07:40;;;;;;;2.42;1.52;;;;;;;24.98;100.00;101968.58;1962711;71;21175;-74
2022/05/08 10:15:48;;;;;;;4.53;1.80;;;;;;;25.01;100.00;101966.73;1960463;73;21089;-73
2022/05/08 10:18:31;;;;;;;3.15;1.57;;;;;;;25.09;100.00;101969.92;1957907;72;21095;-73
2022/05/08 10:21:12;;;;;;;1.65;1.30;;;;;;;24.56;100.00;101966.14;1956111;73;21077;-74
2022/05/08 10:23:45;;;;;;;2.08;1.17;;;;;;;25.09;100.00;101962.03;1925930;72;21158;-74
2022/05/08 10:26:21;;;;;;;2.22;0.93;;;;;;;25.23;100.00;101968.06;1951128;72;21025;-74
2022/05/08 10:29:12;;;;;;;4.00;1.00;;;;;;;25.18;100.00;101965.64;1951310;72;21470;-74
2022/05/08 10:31:51;;;;;;;1.30;1.00;;;;;;;25.31;100.00;101963.84;1951690;72;21068;-74
2022/05/08 10:34:34;;;;;;;1.90;1.20;;;;;;;24.89;100.00;101958.87;1956135;73;21081;-74
2022/05/08 10:37:17;;;;;;;2.37;1.60;;;;;;;24.83;100.00;101957.29;1955382;73;21034;-74
2022/05/08 10:39:46;;;;;;;3.90;1.30;;;;;;;24.83;100.00;101957.29;1956349;73;21007;-74
2022/05/08 10:42:39;;;;;;;3.87;1.92;;;;;;;25.28;100.00;101966.58;1955797;73;21739;-74
2022/05/08 10:45:04;;;;;;;1.90;1.20;;;;;;;25.74;100.00;101968.72;1955493;72;21131;-74
2022/05/08 10:47:40;;;;;;;2.33;0.90;;;;;;;25.84;100.00;101973.59;1955752;72;21630;-74
2022/05/08 10:50:09;;;;;;;3.02;1.20;;;;;;;26.96;100.00;101966.14;1955909;72;21082;-74
2022/05/08 10:52:42;;;;;;;1.80;1.05;;;;;;;25.58;100.00;101974.22;1955598;72;21018;-74
2022/05/08 10:55:17;;;;;;;2.90;1.00;;;;;;;25.56;100.00;101972.92;1905023;75;21101;-74
2022/05/08 10:57:47;;;;;;;2.00;1.00;;;;;;;25.65;100.00;101966.44;1951752;73;21112;-74
2022/05/08 11:00:19;;;;;;;3.10;1.12;;;;;;;25.07;100.00;101967.38;1955976;72;21103;-74
2022/05/08 11:02:50;;;;;;;3.70;1.47;;;;;;;25.43;100.00;101965.11;1956120;72;21490;-74
2022/05/08 11:05:21;;;;;;;1.90;1.30;;;;;;;25.56;100.00;101961.53;1955830;71;21069;-74
2022/05/08 11:07:51;;;;;;;2.83;1.17;;;;;;;25.83;100.00;101962.67;1956139;73;21029;-74
2022/05/08 11:10:20;;;;;;;3.87;1.00;;;;;;;26.12;100.00;101966.70;1957579;72;21100;-74
2022/05/08 11:13:06;;;;;;;1.57;1.10;;;;;;;26.25;100.00;101965.72;1927592;73;20995;-74
2022/05/08 11:15:35;;;;;;;2.67;1.20;;;;;;;25.93;100.00;101959.20;1950501;72;21166;-71
2022/05/08 11:18:09;;;;;;;2.47;1.25;;;;;;;25.41;100.00;101963.02;1947237;73;21065;-71
2022/05/08 11:20:37;;;;;;;2.27;1.12;;;;;;;24.78;100.00;101955.30;1948815;72;21074;-71
2022/05/08 11:23:07;;;;;;;1.55;1.30;;;;;;;24.58;100.00;101959.04;1949434;74;21046;-71
2022/05/08 11:25:35;;;;;;;2.85;1.40;;;;;;;24.16;100.00;101956.58;1948286;74;21101;-71
2022/05/08 11:28:02;;;;;;;1.92;1.00;;;;;;;23.83;100.00;101960.72;1920931;73;21004;-71
2022/05/08 11:30:35;;;;;;;1.85;1.40;;;;;;;23.80;100.00;101955.13;1941909;72;21076;-71
2022/05/08 11:36:11;;;;;;;2.08;1.62;;;;;;;24.04;100.00;101950.41;1941926;73;21131;-72
2022/05/08 11:38:48;;;;;;;2.27;1.30;;;;;;;23.38;100.00;101949.03;1927467;74;21027;-72
2022/05/08 11:41:18;;;;;;;3.25;2.10;;;;;;;23.13;100.00;101942.77;1949581;72;21090;-72
2022/05/08 11:43:55;;;;;;;1.45;1.17;;;;;;;23.07;100.00;101945.56;1949357;72;21123;-72
2022/05/08 11:46:36;;;;;;;1.67;1.20;;;;;;;23.24;100.00;101941.56;1948508;72;21499;-72
2022/05/08 11:49:27;;;;;;;4.00;1.77;;;;;;;22.58;100.00;101950.45;1948903;72;22301;-72
2022/05/08 11:51:56;;;;;;;1.60;1.27;;;;;;;22.43;100.00;101949.95;1921262;73;21048;-72